sensor_id;sensor_type;location;lat;lon;timestamp;temperature;humidity
44863;DHT22;30597;49.628;10.850;2022-07-30T00:01:34;26.10;44.20
44863;DHT22;30597;49.628;10.850;2022-07-30T00:03:59;26.10;44.30
44863;DHT22;30597;49.628;10.850;2022-07-30T00:06:25;26.00;44.20
44863;DHT22;30597;49.628;10.850;2022-07-30T00:08:50;26.10;44.30
44863;DHT22;30597;49.628;10.850;2022-07-30T00:11:16;26.00;44.30
44863;DHT22;30597;49.628;10.850;2022-07-30T00:13:41;26.00;44.30
44863;DHT22;30597;49.628;10.850;2022-07-30T00:16:07;26.00;44.30
44863;DHT22;30597;49.628;10.850;2022-07-30T00:18:32;26.00;44.30
44863;DHT22;30597;49.628;10.850;2022-07-30T00:20:58;26.00;44.30
44863;DHT22;30597;49.628;10.850;2022-07-30T00:23:23;26.00;44.30
44863;DHT22;30597;49.628;10.850;2022-07-30T00:25:49;26.10;44.40
44863;DHT22;30597;49.628;10.850;2022-07-30T00:28:14;26.00;44.30
44863;DHT22;30597;49.628;10.850;2022-07-30T00:30:40;26.00;44.30
44863;DHT22;30597;49.628;10.850;2022-07-30T00:33:06;26.00;45.00
44863;DHT22;30597;49.628;10.850;2022-07-30T00:35:31;26.00;44.40
44863;DHT22;30597;49.628;10.850;2022-07-30T00:37:57;26.00;44.30
44863;DHT22;30597;49.628;10.850;2022-07-30T00:40:22;26.10;44.40
44863;DHT22;30597;49.628;10.850;2022-07-30T00:42:48;26.00;45.00
44863;DHT22;30597;49.628;10.850;2022-07-30T00:45:15;26.00;44.30
44863;DHT22;30597;49.628;10.850;2022-07-30T00:47:41;26.00;44.30
44863;DHT22;30597;49.628;10.850;2022-07-30T00:50:09;26.10;44.50
44863;DHT22;30597;49.628;10.850;2022-07-30T00:52:36;26.00;44.40
44863;DHT22;30597;49.628;10.850;2022-07-30T00:55:04;26.00;44.40
44863;DHT22;30597;49.628;10.850;2022-07-30T00:57:30;26.00;44.40
44863;DHT22;30597;49.628;10.850;2022-07-30T00:59:55;26.10;44.40
44863;DHT22;30597;49.628;10.850;2022-07-30T01:02:22;26.00;44.40
44863;DHT22;30597;49.628;10.850;2022-07-30T01:04:47;26.00;44.30
44863;DHT22;30597;49.628;10.850;2022-07-30T01:07:13;26.00;44.30
44863;DHT22;30597;49.628;10.850;2022-07-30T01:09:39;26.10;44.40
44863;DHT22;30597;49.628;10.850;2022-07-30T01:12:06;26.10;44.40
44863;DHT22;30597;49.628;10.850;2022-07-30T01:14:34;26.00;44.30
44863;DHT22;30597;49.628;10.850;2022-07-30T01:17:00;26.00;44.30
44863;DHT22;30597;49.628;10.850;2022-07-30T01:19:30;26.00;44.40
44863;DHT22;30597;49.628;10.850;2022-07-30T01:27:40;26.00;44.40
44863;DHT22;30597;49.628;10.850;2022-07-30T01:30:08;26.00;44.40
44863;DHT22;30597;49.628;10.850;2022-07-30T01:32:39;26.00;44.40
44863;DHT22;30597;49.628;10.850;2022-07-30T01:35:08;26.00;44.40
44863;DHT22;30597;49.628;10.850;2022-07-30T01:37:34;26.00;44.40
44863;DHT22;30597;49.628;10.850;2022-07-30T01:40:01;26.00;44.40
44863;DHT22;30597;49.628;10.850;2022-07-30T01:42:28;25.90;44.40
44863;DHT22;30597;49.628;10.850;2022-07-30T01:44:56;26.00;44.50
44863;DHT22;30597;49.628;10.850;2022-07-30T01:47:23;26.00;44.40
44863;DHT22;30597;49.628;10.850;2022-07-30T01:49:51;26.00;44.40
44863;DHT22;30597;49.628;10.850;2022-07-30T01:52:19;26.00;44.50
44863;DHT22;30597;49.628;10.850;2022-07-30T01:54:48;26.00;44.40
44863;DHT22;30597;49.628;10.850;2022-07-30T01:57:15;26.00;44.50
44863;DHT22;30597;49.628;10.850;2022-07-30T01:59:43;26.00;44.50
44863;DHT22;30597;49.628;10.850;2022-07-30T02:02:10;26.00;45.20
44863;DHT22;30597;49.628;10.850;2022-07-30T02:04:35;26.00;44.50
44863;DHT22;30597;49.628;10.850;2022-07-30T02:07:02;26.00;44.50
44863;DHT22;30597;49.628;10.850;2022-07-30T02:09:34;26.00;44.50
44863;DHT22;30597;49.628;10.850;2022-07-30T02:12:01;25.90;44.50
44863;DHT22;30597;49.628;10.850;2022-07-30T02:14:53;25.90;44.40
44863;DHT22;30597;49.628;10.850;2022-07-30T02:17:28;25.90;44.50
44863;DHT22;30597;49.628;10.850;2022-07-30T02:19:55;25.90;44.50
44863;DHT22;30597;49.628;10.850;2022-07-30T02:22:24;26.00;44.50
44863;DHT22;30597;49.628;10.850;2022-07-30T02:24:51;25.90;44.50
44863;DHT22;30597;49.628;10.850;2022-07-30T02:27:25;25.90;44.50
44863;DHT22;30597;49.628;10.850;2022-07-30T02:29:53;25.90;44.50
44863;DHT22;30597;49.628;10.850;2022-07-30T02:32:22;25.90;44.50
44863;DHT22;30597;49.628;10.850;2022-07-30T02:34:52;26.00;44.50
44863;DHT22;30597;49.628;10.850;2022-07-30T02:37:20;25.90;44.50
44863;DHT22;30597;49.628;10.850;2022-07-30T02:39:49;25.90;44.50
44863;DHT22;30597;49.628;10.850;2022-07-30T02:42:15;25.90;44.50
44863;DHT22;30597;49.628;10.850;2022-07-30T02:44:44;25.90;44.40
44863;DHT22;30597;49.628;10.850;2022-07-30T02:47:12;25.90;44.50
44863;DHT22;30597;49.628;10.850;2022-07-30T02:49:41;25.90;44.50
44863;DHT22;30597;49.628;10.850;2022-07-30T02:52:09;25.90;44.50
44863;DHT22;30597;49.628;10.850;2022-07-30T02:54:39;25.90;44.50
44863;DHT22;30597;49.628;10.850;2022-07-30T02:57:06;26.00;44.60
44863;DHT22;30597;49.628;10.850;2022-07-30T02:59:33;25.90;44.50
44863;DHT22;30597;49.628;10.850;2022-07-30T03:02:00;25.90;44.50
44863;DHT22;30597;49.628;10.850;2022-07-30T03:04:27;25.90;44.60
44863;DHT22;30597;49.628;10.850;2022-07-30T03:06:54;25.90;44.60
44863;DHT22;30597;49.628;10.850;2022-07-30T03:09:20;25.90;44.60
44863;DHT22;30597;49.628;10.850;2022-07-30T03:11:48;25.90;44.60
44863;DHT22;30597;49.628;10.850;2022-07-30T03:14:15;25.90;44.50
44863;DHT22;30597;49.628;10.850;2022-07-30T03:16:46;25.90;44.60
44863;DHT22;30597;49.628;10.850;2022-07-30T03:19:14;25.80;44.60
44863;DHT22;30597;49.628;10.850;2022-07-30T03:21:42;25.80;44.50
44863;DHT22;30597;49.628;10.850;2022-07-30T03:24:11;25.80;44.60
44863;DHT22;30597;49.628;10.850;2022-07-30T03:26:38;25.80;45.30
44863;DHT22;30597;49.628;10.850;2022-07-30T03:29:06;25.80;44.60
44863;DHT22;30597;49.628;10.850;2022-07-30T03:31:32;25.80;44.50
44863;DHT22;30597;49.628;10.850;2022-07-30T03:33:59;25.80;44.60
44863;DHT22;30597;49.628;10.850;2022-07-30T03:36:25;25.80;44.60
44863;DHT22;30597;49.628;10.850;2022-07-30T03:38:52;25.80;44.60
44863;DHT22;30597;49.628;10.850;2022-07-30T03:41:18;25.80;44.60
44863;DHT22;30597;49.628;10.850;2022-07-30T03:43:45;25.80;44.60
44863;DHT22;30597;49.628;10.850;2022-07-30T03:46:11;25.80;44.60
44863;DHT22;30597;49.628;10.850;2022-07-30T03:48:37;25.80;44.60
44863;DHT22;30597;49.628;10.850;2022-07-30T03:51:05;25.80;44.60
44863;DHT22;30597;49.628;10.850;2022-07-30T03:53:31;25.80;44.60
44863;DHT22;30597;49.628;10.850;2022-07-30T03:55:58;25.80;44.60
44863;DHT22;30597;49.628;10.850;2022-07-30T03:58:24;25.80;44.60
44863;DHT22;30597;49.628;10.850;2022-07-30T04:00:50;25.80;44.60
44863;DHT22;30597;49.628;10.850;2022-07-30T04:03:27;25.80;44.60
44863;DHT22;30597;49.628;10.850;2022-07-30T04:05:53;25.80;44.60
44863;DHT22;30597;49.628;10.850;2022-07-30T04:08:19;25.70;44.60
44863;DHT22;30597;49.628;10.850;2022-07-30T04:10:45;25.80;44.80
44863;DHT22;30597;49.628;10.850;2022-07-30T04:13:11;25.70;44.70
44863;DHT22;30597;49.628;10.850;2022-07-30T04:16:01;25.80;44.70
44863;DHT22;30597;49.628;10.850;2022-07-30T04:18:35;25.70;44.70
44863;DHT22;30597;49.628;10.850;2022-07-30T04:21:03;25.70;44.70
44863;DHT22;30597;49.628;10.850;2022-07-30T04:23:29;25.70;44.70
44863;DHT22;30597;49.628;10.850;2022-07-30T04:25:55;25.70;44.70
44863;DHT22;30597;49.628;10.850;2022-07-30T04:28:21;25.70;44.70
44863;DHT22;30597;49.628;10.850;2022-07-30T04:30:47;25.70;44.70
44863;DHT22;30597;49.628;10.850;2022-07-30T04:33:12;25.70;44.70
44863;DHT22;30597;49.628;10.850;2022-07-30T04:35:38;25.70;44.70
44863;DHT22;30597;49.628;10.850;2022-07-30T04:38:03;25.80;44.80
44863;DHT22;30597;49.628;10.850;2022-07-30T04:40:29;25.70;44.70
44863;DHT22;30597;49.628;10.850;2022-07-30T04:42:56;25.70;44.80
44863;DHT22;30597;49.628;10.850;2022-07-30T04:45:21;25.70;44.70
44863;DHT22;30597;49.628;10.850;2022-07-30T04:47:47;25.70;44.70
44863;DHT22;30597;49.628;10.850;2022-07-30T04:50:14;25.70;44.70
44863;DHT22;30597;49.628;10.850;2022-07-30T04:52:41;25.70;44.70
44863;DHT22;30597;49.628;10.850;2022-07-30T04:55:08;25.70;44.80
44863;DHT22;30597;49.628;10.850;2022-07-30T04:57:36;25.70;45.40
44863;DHT22;30597;49.628;10.850;2022-07-30T05:00:04;25.70;44.80
44863;DHT22;30597;49.628;10.850;2022-07-30T05:02:32;25.70;44.80
44863;DHT22;30597;49.628;10.850;2022-07-30T05:05:00;25.70;44.80
44863;DHT22;30597;49.628;10.850;2022-07-30T05:07:26;25.70;45.00
44863;DHT22;30597;49.628;10.850;2022-07-30T05:09:53;25.70;44.80
44863;DHT22;30597;49.628;10.850;2022-07-30T05:12:18;25.70;44.90
44863;DHT22;30597;49.628;10.850;2022-07-30T05:14:44;25.70;44.90
44863;DHT22;30597;49.628;10.850;2022-07-30T05:17:09;25.70;44.80
44863;DHT22;30597;49.628;10.850;2022-07-30T05:19:35;25.70;44.80
44863;DHT22;30597;49.628;10.850;2022-07-30T05:22:01;25.60;44.90
44863;DHT22;30597;49.628;10.850;2022-07-30T05:24:26;25.70;45.00
44863;DHT22;30597;49.628;10.850;2022-07-30T05:26:52;25.70;44.90
44863;DHT22;30597;49.628;10.850;2022-07-30T05:29:17;25.70;44.80
44863;DHT22;30597;49.628;10.850;2022-07-30T05:31:43;25.70;44.90
44863;DHT22;30597;49.628;10.850;2022-07-30T05:34:09;25.70;45.00
44863;DHT22;30597;49.628;10.850;2022-07-30T05:36:34;25.70;44.90
44863;DHT22;30597;49.628;10.850;2022-07-30T05:39:00;25.70;44.80
44863;DHT22;30597;49.628;10.850;2022-07-30T05:41:26;25.70;44.90
44863;DHT22;30597;49.628;10.850;2022-07-30T05:43:55;25.70;44.90
44863;DHT22;30597;49.628;10.850;2022-07-30T05:46:21;25.70;44.90
44863;DHT22;30597;49.628;10.850;2022-07-30T05:48:47;25.70;44.80
44863;DHT22;30597;49.628;10.850;2022-07-30T05:51:13;25.70;45.00
44863;DHT22;30597;49.628;10.850;2022-07-30T05:53:38;25.70;44.90
44863;DHT22;30597;49.628;10.850;2022-07-30T05:56:04;25.70;44.90
44863;DHT22;30597;49.628;10.850;2022-07-30T05:58:30;25.70;45.00
44863;DHT22;30597;49.628;10.850;2022-07-30T06:00:55;25.70;44.90
44863;DHT22;30597;49.628;10.850;2022-07-30T06:03:21;25.70;45.00
44863;DHT22;30597;49.628;10.850;2022-07-30T06:05:46;25.70;45.00
44863;DHT22;30597;49.628;10.850;2022-07-30T06:08:12;25.70;45.00
44863;DHT22;30597;49.628;10.850;2022-07-30T06:10:37;25.70;45.00
44863;DHT22;30597;49.628;10.850;2022-07-30T06:13:03;25.70;45.00
44863;DHT22;30597;49.628;10.850;2022-07-30T06:15:28;25.70;44.90
44863;DHT22;30597;49.628;10.850;2022-07-30T06:17:54;25.70;44.90
44863;DHT22;30597;49.628;10.850;2022-07-30T06:20:20;25.80;45.00
44863;DHT22;30597;49.628;10.850;2022-07-30T06:22:46;25.70;44.90
44863;DHT22;30597;49.628;10.850;2022-07-30T06:25:12;25.70;45.00
44863;DHT22;30597;49.628;10.850;2022-07-30T06:27:38;25.70;45.00
44863;DHT22;30597;49.628;10.850;2022-07-30T06:30:06;25.70;44.90
44863;DHT22;30597;49.628;10.850;2022-07-30T06:32:32;25.70;44.90
44863;DHT22;30597;49.628;10.850;2022-07-30T06:34:58;25.70;44.80
44863;DHT22;30597;49.628;10.850;2022-07-30T06:37:23;25.70;44.80
44863;DHT22;30597;49.628;10.850;2022-07-30T06:39:49;25.70;44.80
44863;DHT22;30597;49.628;10.850;2022-07-30T06:42:15;25.70;44.80
44863;DHT22;30597;49.628;10.850;2022-07-30T06:44:41;25.70;44.70
44863;DHT22;30597;49.628;10.850;2022-07-30T06:47:07;25.70;44.70
44863;DHT22;30597;49.628;10.850;2022-07-30T06:49:33;25.70;44.70
44863;DHT22;30597;49.628;10.850;2022-07-30T06:51:59;25.70;44.80
44863;DHT22;30597;49.628;10.850;2022-07-30T06:54:25;25.70;44.70
44863;DHT22;30597;49.628;10.850;2022-07-30T06:56:51;25.70;44.80
44863;DHT22;30597;49.628;10.850;2022-07-30T06:59:16;25.70;44.70
44863;DHT22;30597;49.628;10.850;2022-07-30T07:01:42;25.70;44.60
44863;DHT22;30597;49.628;10.850;2022-07-30T07:04:07;25.70;44.70
44863;DHT22;30597;49.628;10.850;2022-07-30T07:06:33;25.80;44.80
44863;DHT22;30597;49.628;10.850;2022-07-30T07:08:59;25.70;44.70
44863;DHT22;30597;49.628;10.850;2022-07-30T07:11:25;25.80;44.70
44863;DHT22;30597;49.628;10.850;2022-07-30T07:13:50;25.70;44.60
44863;DHT22;30597;49.628;10.850;2022-07-30T07:16:16;25.80;44.70
44863;DHT22;30597;49.628;10.850;2022-07-30T07:18:46;25.80;44.60
44863;DHT22;30597;49.628;10.850;2022-07-30T07:21:11;25.80;44.60
44863;DHT22;30597;49.628;10.850;2022-07-30T07:23:37;25.80;44.60
44863;DHT22;30597;49.628;10.850;2022-07-30T07:26:02;25.80;44.60
44863;DHT22;30597;49.628;10.850;2022-07-30T07:28:28;25.80;44.50
44863;DHT22;30597;49.628;10.850;2022-07-30T07:30:54;25.80;44.60
44863;DHT22;30597;49.628;10.850;2022-07-30T07:33:19;25.80;44.60
44863;DHT22;30597;49.628;10.850;2022-07-30T07:35:46;25.80;44.50
44863;DHT22;30597;49.628;10.850;2022-07-30T07:38:11;25.80;44.60
44863;DHT22;30597;49.628;10.850;2022-07-30T07:40:37;25.80;44.60
44863;DHT22;30597;49.628;10.850;2022-07-30T07:43:02;25.80;44.60
44863;DHT22;30597;49.628;10.850;2022-07-30T07:45:29;25.80;44.60
44863;DHT22;30597;49.628;10.850;2022-07-30T07:47:55;25.80;44.50
44863;DHT22;30597;49.628;10.850;2022-07-30T07:50:20;25.80;44.50
44863;DHT22;30597;49.628;10.850;2022-07-30T07:52:47;25.80;44.50
44863;DHT22;30597;49.628;10.850;2022-07-30T07:55:13;25.80;44.50
44863;DHT22;30597;49.628;10.850;2022-07-30T07:57:43;25.80;44.40
44863;DHT22;30597;49.628;10.850;2022-07-30T08:00:11;25.80;44.50
44863;DHT22;30597;49.628;10.850;2022-07-30T08:02:37;25.80;44.50
44863;DHT22;30597;49.628;10.850;2022-07-30T08:05:04;25.80;44.40
44863;DHT22;30597;49.628;10.850;2022-07-30T08:07:30;25.80;44.50
44863;DHT22;30597;49.628;10.850;2022-07-30T08:09:56;25.80;44.40
44863;DHT22;30597;49.628;10.850;2022-07-30T08:12:22;25.80;44.40
44863;DHT22;30597;49.628;10.850;2022-07-30T08:14:47;25.80;44.50
44863;DHT22;30597;49.628;10.850;2022-07-30T08:17:13;25.80;44.50
44863;DHT22;30597;49.628;10.850;2022-07-30T08:19:39;25.80;44.50
44863;DHT22;30597;49.628;10.850;2022-07-30T08:22:04;25.80;44.50
44863;DHT22;30597;49.628;10.850;2022-07-30T08:24:30;25.80;44.60
44863;DHT22;30597;49.628;10.850;2022-07-30T08:26:55;25.80;44.50
44863;DHT22;30597;49.628;10.850;2022-07-30T08:29:21;25.80;44.50
44863;DHT22;30597;49.628;10.850;2022-07-30T08:31:47;25.80;44.50
44863;DHT22;30597;49.628;10.850;2022-07-30T08:34:12;25.80;44.40
44863;DHT22;30597;49.628;10.850;2022-07-30T08:36:38;25.80;44.50
44863;DHT22;30597;49.628;10.850;2022-07-30T08:39:04;25.80;44.60
44863;DHT22;30597;49.628;10.850;2022-07-30T08:41:30;25.80;44.60
44863;DHT22;30597;49.628;10.850;2022-07-30T08:43:58;25.80;44.60
44863;DHT22;30597;49.628;10.850;2022-07-30T08:46:24;25.80;44.60
44863;DHT22;30597;49.628;10.850;2022-07-30T08:48:52;25.80;44.60
44863;DHT22;30597;49.628;10.850;2022-07-30T08:51:18;25.80;44.60
44863;DHT22;30597;49.628;10.850;2022-07-30T08:53:45;25.80;44.60
44863;DHT22;30597;49.628;10.850;2022-07-30T08:56:11;25.80;44.60
44863;DHT22;30597;49.628;10.850;2022-07-30T08:58:37;25.80;44.60
44863;DHT22;30597;49.628;10.850;2022-07-30T09:01:04;25.80;44.60
44863;DHT22;30597;49.628;10.850;2022-07-30T09:03:30;25.70;44.60
44863;DHT22;30597;49.628;10.850;2022-07-30T09:05:57;25.70;44.60
44863;DHT22;30597;49.628;10.850;2022-07-30T09:08:22;25.70;44.60
44863;DHT22;30597;49.628;10.850;2022-07-30T09:10:48;25.70;44.70
44863;DHT22;30597;49.628;10.850;2022-07-30T09:13:31;25.70;44.70
44863;DHT22;30597;49.628;10.850;2022-07-30T09:16:01;25.70;44.80
44863;DHT22;30597;49.628;10.850;2022-07-30T09:18:35;25.70;44.80
44863;DHT22;30597;49.628;10.850;2022-07-30T09:21:14;25.70;44.80
44863;DHT22;30597;49.628;10.850;2022-07-30T09:23:40;25.70;44.80
44863;DHT22;30597;49.628;10.850;2022-07-30T09:26:05;25.70;44.80
44863;DHT22;30597;49.628;10.850;2022-07-30T09:28:32;25.70;44.80
44863;DHT22;30597;49.628;10.850;2022-07-30T09:30:59;25.70;44.80
44863;DHT22;30597;49.628;10.850;2022-07-30T09:33:34;25.70;44.80
44863;DHT22;30597;49.628;10.850;2022-07-30T09:36:01;25.70;44.80
44863;DHT22;30597;49.628;10.850;2022-07-30T09:38:27;25.70;44.80
44863;DHT22;30597;49.628;10.850;2022-07-30T09:40:54;25.70;44.80
44863;DHT22;30597;49.628;10.850;2022-07-30T09:43:20;25.70;44.80
44863;DHT22;30597;49.628;10.850;2022-07-30T09:45:54;25.70;44.80
44863;DHT22;30597;49.628;10.850;2022-07-30T09:48:23;25.70;44.80
44863;DHT22;30597;49.628;10.850;2022-07-30T09:50:50;25.70;44.80
44863;DHT22;30597;49.628;10.850;2022-07-30T09:53:16;25.70;44.70
44863;DHT22;30597;49.628;10.850;2022-07-30T09:55:42;25.70;44.70
44863;DHT22;30597;49.628;10.850;2022-07-30T09:58:08;25.70;44.70
44863;DHT22;30597;49.628;10.850;2022-07-30T10:00:35;25.80;44.80
44863;DHT22;30597;49.628;10.850;2022-07-30T10:03:14;25.70;44.80
44863;DHT22;30597;49.628;10.850;2022-07-30T10:05:52;25.80;44.80
44863;DHT22;30597;49.628;10.850;2022-07-30T10:08:18;25.80;44.70
44863;DHT22;30597;49.628;10.850;2022-07-30T10:10:45;25.80;44.60
44863;DHT22;30597;49.628;10.850;2022-07-30T10:13:13;25.80;44.60
44863;DHT22;30597;49.628;10.850;2022-07-30T10:15:38;25.90;44.70
44863;DHT22;30597;49.628;10.850;2022-07-30T10:18:05;25.90;44.50
44863;DHT22;30597;49.628;10.850;2022-07-30T10:20:31;25.90;44.40
44863;DHT22;30597;49.628;10.850;2022-07-30T10:22:57;25.90;44.30
44863;DHT22;30597;49.628;10.850;2022-07-30T10:25:25;26.00;44.40
44863;DHT22;30597;49.628;10.850;2022-07-30T10:27:51;26.00;44.30
44863;DHT22;30597;49.628;10.850;2022-07-30T10:30:17;26.10;44.30
44863;DHT22;30597;49.628;10.850;2022-07-30T10:32:44;26.10;44.30
44863;DHT22;30597;49.628;10.850;2022-07-30T10:35:11;26.10;44.20
44863;DHT22;30597;49.628;10.850;2022-07-30T10:37:40;26.10;44.20
44863;DHT22;30597;49.628;10.850;2022-07-30T10:40:24;26.10;44.20
44863;DHT22;30597;49.628;10.850;2022-07-30T10:45:58;26.10;44.20
44863;DHT22;30597;49.628;10.850;2022-07-30T10:48:26;26.10;44.10
44863;DHT22;30597;49.628;10.850;2022-07-30T10:50:56;26.10;44.20
44863;DHT22;30597;49.628;10.850;2022-07-30T10:53:40;26.10;44.10
44863;DHT22;30597;49.628;10.850;2022-07-30T10:56:20;26.10;44.10
44863;DHT22;30597;49.628;10.850;2022-07-30T10:59:05;26.10;44.10
44863;DHT22;30597;49.628;10.850;2022-07-30T11:04:26;26.20;44.10
44863;DHT22;30597;49.628;10.850;2022-07-30T11:07:24;26.20;44.10
44863;DHT22;30597;49.628;10.850;2022-07-30T11:09:39;26.20;44.10
44863;DHT22;30597;49.628;10.850;2022-07-30T11:12:06;26.20;44.00
44863;DHT22;30597;49.628;10.850;2022-07-30T11:14:54;26.30;44.00
44863;DHT22;30597;49.628;10.850;2022-07-30T11:17:20;26.20;44.00
44863;DHT22;30597;49.628;10.850;2022-07-30T11:22:31;26.20;44.20
44863;DHT22;30597;49.628;10.850;2022-07-30T11:27:50;26.20;44.10
44863;DHT22;30597;49.628;10.850;2022-07-30T11:32:48;26.20;44.20
44863;DHT22;30597;49.628;10.850;2022-07-30T11:35:24;26.20;44.00
44863;DHT22;30597;49.628;10.850;2022-07-30T11:38:06;26.20;44.40
44863;DHT22;30597;49.628;10.850;2022-07-30T11:43:19;26.20;44.20
44863;DHT22;30597;49.628;10.850;2022-07-30T11:45:48;26.20;44.20
44863;DHT22;30597;49.628;10.850;2022-07-30T11:48:15;26.30;44.20
44863;DHT22;30597;49.628;10.850;2022-07-30T11:50:42;26.30;44.10
44863;DHT22;30597;49.628;10.850;2022-07-30T11:53:12;26.20;44.10
44863;DHT22;30597;49.628;10.850;2022-07-30T11:55:43;26.30;44.20
44863;DHT22;30597;49.628;10.850;2022-07-30T11:58:32;26.30;44.20
44863;DHT22;30597;49.628;10.850;2022-07-30T12:01:11;26.30;44.20
44863;DHT22;30597;49.628;10.850;2022-07-30T12:03:40;26.30;43.80
44863;DHT22;30597;49.628;10.850;2022-07-30T12:06:10;26.30;43.90
44863;DHT22;30597;49.628;10.850;2022-07-30T12:08:42;26.30;44.20
44863;DHT22;30597;49.628;10.850;2022-07-30T12:11:08;26.30;44.10
44863;DHT22;30597;49.628;10.850;2022-07-30T12:13:35;26.20;43.90
44863;DHT22;30597;49.628;10.850;2022-07-30T12:16:07;26.30;43.90
44863;DHT22;30597;49.628;10.850;2022-07-30T12:18:33;26.30;44.00
44863;DHT22;30597;49.628;10.850;2022-07-30T12:21:02;26.30;43.80
44863;DHT22;30597;49.628;10.850;2022-07-30T12:23:28;26.30;43.90
44863;DHT22;30597;49.628;10.850;2022-07-30T12:25:55;26.30;43.80
44863;DHT22;30597;49.628;10.850;2022-07-30T12:28:22;26.30;43.90
44863;DHT22;30597;49.628;10.850;2022-07-30T12:30:49;26.30;43.90
44863;DHT22;30597;49.628;10.850;2022-07-30T12:33:15;26.30;43.60
44863;DHT22;30597;49.628;10.850;2022-07-30T12:35:50;26.30;43.60
44863;DHT22;30597;49.628;10.850;2022-07-30T12:38:17;26.30;43.60
44863;DHT22;30597;49.628;10.850;2022-07-30T12:43:50;26.30;43.60
44863;DHT22;30597;49.628;10.850;2022-07-30T12:46:21;26.30;43.40
44863;DHT22;30597;49.628;10.850;2022-07-30T12:48:58;26.30;43.50
44863;DHT22;30597;49.628;10.850;2022-07-30T12:51:28;26.30;43.40
44863;DHT22;30597;49.628;10.850;2022-07-30T12:53:57;26.30;43.50
44863;DHT22;30597;49.628;10.850;2022-07-30T12:56:28;26.30;43.50
44863;DHT22;30597;49.628;10.850;2022-07-30T12:58:57;26.30;43.40
44863;DHT22;30597;49.628;10.850;2022-07-30T13:01:42;26.30;43.50
44863;DHT22;30597;49.628;10.850;2022-07-30T13:04:09;26.30;43.50
44863;DHT22;30597;49.628;10.850;2022-07-30T13:06:35;26.30;43.40
44863;DHT22;30597;49.628;10.850;2022-07-30T13:09:03;26.30;43.50
44863;DHT22;30597;49.628;10.850;2022-07-30T13:11:43;26.30;43.50
44863;DHT22;30597;49.628;10.850;2022-07-30T13:14:09;26.30;43.60
44863;DHT22;30597;49.628;10.850;2022-07-30T13:16:37;26.30;43.50
44863;DHT22;30597;49.628;10.850;2022-07-30T13:19:04;26.30;43.50
44863;DHT22;30597;49.628;10.850;2022-07-30T13:21:30;26.30;43.50
44863;DHT22;30597;49.628;10.850;2022-07-30T13:23:55;26.30;43.40
44863;DHT22;30597;49.628;10.850;2022-07-30T13:26:21;26.30;43.40
44863;DHT22;30597;49.628;10.850;2022-07-30T13:28:46;26.30;43.40
44863;DHT22;30597;49.628;10.850;2022-07-30T13:31:12;26.30;43.40
44863;DHT22;30597;49.628;10.850;2022-07-30T13:33:38;26.30;43.40
44863;DHT22;30597;49.628;10.850;2022-07-30T13:36:05;26.30;43.40
44863;DHT22;30597;49.628;10.850;2022-07-30T13:38:31;26.30;43.40
44863;DHT22;30597;49.628;10.850;2022-07-30T13:40:58;26.30;43.40
44863;DHT22;30597;49.628;10.850;2022-07-30T13:43:24;26.30;43.40
44863;DHT22;30597;49.628;10.850;2022-07-30T13:45:50;26.30;44.00
44863;DHT22;30597;49.628;10.850;2022-07-30T13:48:16;26.30;43.50
44863;DHT22;30597;49.628;10.850;2022-07-30T13:50:42;26.30;43.40
44863;DHT22;30597;49.628;10.850;2022-07-30T13:53:08;26.30;43.40
44863;DHT22;30597;49.628;10.850;2022-07-30T13:55:34;26.30;43.50
44863;DHT22;30597;49.628;10.850;2022-07-30T13:58:00;26.30;43.40
44863;DHT22;30597;49.628;10.850;2022-07-30T14:00:27;26.30;43.50
44863;DHT22;30597;49.628;10.850;2022-07-30T14:02:59;26.30;43.40
44863;DHT22;30597;49.628;10.850;2022-07-30T14:05:25;26.30;43.40
44863;DHT22;30597;49.628;10.850;2022-07-30T14:07:51;26.30;43.40
44863;DHT22;30597;49.628;10.850;2022-07-30T14:10:16;26.30;44.00
44863;DHT22;30597;49.628;10.850;2022-07-30T14:12:42;26.30;43.40
44863;DHT22;30597;49.628;10.850;2022-07-30T14:15:08;26.30;43.40
44863;DHT22;30597;49.628;10.850;2022-07-30T14:17:34;26.30;43.30
44863;DHT22;30597;49.628;10.850;2022-07-30T14:20:00;26.30;43.30
44863;DHT22;30597;49.628;10.850;2022-07-30T14:22:25;26.30;43.30
44863;DHT22;30597;49.628;10.850;2022-07-30T14:24:51;26.30;43.30
44863;DHT22;30597;49.628;10.850;2022-07-30T14:27:17;26.30;43.30
44863;DHT22;30597;49.628;10.850;2022-07-30T14:29:45;26.30;43.30
44863;DHT22;30597;49.628;10.850;2022-07-30T14:32:11;26.30;43.40
44863;DHT22;30597;49.628;10.850;2022-07-30T14:34:36;26.30;43.30
44863;DHT22;30597;49.628;10.850;2022-07-30T14:37:02;26.30;43.40
44863;DHT22;30597;49.628;10.850;2022-07-30T14:39:28;26.30;43.40
44863;DHT22;30597;49.628;10.850;2022-07-30T14:41:54;26.30;43.40
44863;DHT22;30597;49.628;10.850;2022-07-30T14:44:21;26.30;43.40
44863;DHT22;30597;49.628;10.850;2022-07-30T14:46:46;26.30;43.40
44863;DHT22;30597;49.628;10.850;2022-07-30T14:49:12;26.30;43.40
44863;DHT22;30597;49.628;10.850;2022-07-30T14:51:37;26.30;43.40
44863;DHT22;30597;49.628;10.850;2022-07-30T14:54:03;26.20;43.40
44863;DHT22;30597;49.628;10.850;2022-07-30T14:56:29;26.20;43.50
44863;DHT22;30597;49.628;10.850;2022-07-30T14:58:54;26.20;43.40
44863;DHT22;30597;49.628;10.850;2022-07-30T15:01:20;26.20;43.50
44863;DHT22;30597;49.628;10.850;2022-07-30T15:03:46;26.20;43.40
44863;DHT22;30597;49.628;10.850;2022-07-30T15:06:12;26.20;43.60
44863;DHT22;30597;49.628;10.850;2022-07-30T15:08:39;26.20;43.60
44863;DHT22;30597;49.628;10.850;2022-07-30T15:11:05;26.20;43.60
44863;DHT22;30597;49.628;10.850;2022-07-30T15:13:31;26.20;43.60
44863;DHT22;30597;49.628;10.850;2022-07-30T15:15:56;26.20;43.50
44863;DHT22;30597;49.628;10.850;2022-07-30T15:18:22;26.20;43.40
44863;DHT22;30597;49.628;10.850;2022-07-30T15:20:47;26.20;43.50
44863;DHT22;30597;49.628;10.850;2022-07-30T15:23:13;26.20;43.50
44863;DHT22;30597;49.628;10.850;2022-07-30T15:25:39;26.20;43.50
44863;DHT22;30597;49.628;10.850;2022-07-30T15:28:05;26.20;43.50
44863;DHT22;30597;49.628;10.850;2022-07-30T15:30:30;26.20;43.50
44863;DHT22;30597;49.628;10.850;2022-07-30T15:32:56;26.20;43.40
44863;DHT22;30597;49.628;10.850;2022-07-30T15:35:21;26.20;43.40
44863;DHT22;30597;49.628;10.850;2022-07-30T15:37:47;26.20;43.40
44863;DHT22;30597;49.628;10.850;2022-07-30T15:40:13;26.20;43.40
44863;DHT22;30597;49.628;10.850;2022-07-30T15:42:38;26.20;43.30